KMTW/MTW METAR and TAF weather

Enter ICAO airport designator
Station Type Date Time Source
KMTW METAR 2020/08/12 16:56 UTC NOAA

KMTW 121656Z AUTO 09007KT 10SM CLR 26/16 A3012 RMK AO2 SLP198 T02610156


Station Type Date Time Source
KMTW Decoded METAR 2020/08/12 16:56 UTC NOAA

Manitowoc, Manitowoc County Airport, WI, United States (KMTW) 44-08N 087-41W
Aug 12, 2020 - 12:56 PM EDT / 2020.08.12 1656 UTC
Wind: from the E (090 degrees) at 8 MPH (7 KT):0
Visibility: 10 mile(s):0
Sky conditions: clear
Temperature: 79.0 F (26.1 C)
Dew Point: 60.1 F (15.6 C)
Relative Humidity: 52%
Pressure (altimeter): 30.12 in. Hg (1019 hPa)
ob: KMTW 121656Z AUTO 09007KT 10SM CLR 26/16 A3012 RMK AO2 SLP198 T02610156
cycle: 17

Station Type Date Time Source
KMTW TAF 2020/08/12 18:22 UTC NOAA

TAF KMTW 121720Z 1218/1318 12005KT P6SM SKC
FM130100 VRB03KT P6SM SCT250
FM131500 11005KT P6SM BKN250

Example: see airport list